Time;durP1;ratioP1;P1;durP2;ratioP2;P2;SDS_P1;SDS_P2;PMS_P1;PMS_P2;Temp;Humidity;BMP_temperature;BMP_pressure;BME280_temperature;BME280_humidity;BME280_pressure;Samples;Min_cycle;Max_cycle;Signal;HPM_P1;HPM_P2
2020/12/22 00:01:10;;;;;;;5.72;4.07;;;19.10;51.60;;;;;;5067326;28;20033;-54
2020/12/22 00:03:36;;;;;;;5.55;3.47;;;19.10;51.60;;;;;;5067152;28;20518;-56
2020/12/22 00:06:01;;;;;;;5.80;3.30;;;19.10;51.50;;;;;;5067385;28;20040;-55
2020/12/22 00:08:27;;;;;;;4.82;3.22;;;19.10;51.50;;;;;;5067860;28;20537;-57
2020/12/22 00:10:52;;;;;;;4.45;2.97;;;19.00;51.50;;;;;;5055820;28;20036;-55
2020/12/22 00:13:18;;;;;;;4.43;2.95;;;19.10;51.50;;;;;;5074097;28;20028;-56
2020/12/22 00:15:43;;;;;;;7.20;3.90;;;19.00;51.40;;;;;;5071038;28;20644;-57
2020/12/22 00:18:09;;;;;;;5.32;3.17;;;19.00;51.40;;;;;;5066905;28;20035;-53
2020/12/22 00:20:35;;;;;;;5.70;3.45;;;19.00;51.40;;;;;;5066609;28;20043;-53
2020/12/22 00:23:01;;;;;;;4.43;3.00;;;19.00;51.40;;;;;;5049000;28;20028;-54
2020/12/22 00:25:26;;;;;;;4.30;3.17;;;19.00;51.40;;;;;;5066332;28;20056;-53
2020/12/22 00:27:52;;;;;;;6.22;4.20;;;19.00;51.40;;;;;;5066703;28;20407;-56
2020/12/22 00:30:17;;;;;;;4.63;3.00;;;19.00;51.50;;;;;;5065829;28;20040;-52
2020/12/22 00:32:43;;;;;;;6.32;3.88;;;19.00;51.40;;;;;;5066934;28;20171;-56
2020/12/22 00:35:08;;;;;;;5.50;3.38;;;18.90;51.30;;;;;;5066605;28;20415;-58
2020/12/22 00:37:33;;;;;;;4.30;3.28;;;18.90;51.40;;;;;;5047975;28;20044;-57
2020/12/22 00:39:59;;;;;;;7.20;3.58;;;18.90;51.30;;;;;;5066494;28;20068;-57
2020/12/22 00:42:24;;;;;;;4.57;3.20;;;18.90;51.30;;;;;;5066846;28;20522;-57
2020/12/22 00:44:50;;;;;;;6.00;2.90;;;18.90;51.30;;;;;;5066039;28;20033;-54
2020/12/22 00:47:15;;;;;;;6.20;3.47;;;18.90;51.30;;;;;;5066624;28;20033;-54
2020/12/22 00:49:41;;;;;;;5.22;2.78;;;18.90;51.40;;;;;;5066119;28;20037;-56
2020/12/22 00:52:06;;;;;;;4.65;3.28;;;18.80;51.30;;;;;;5046945;28;20064;-53
2020/12/22 00:54:32;;;;;;;4.30;3.22;;;18.80;51.50;;;;;;5065652;28;20032;-54
2020/12/22 00:56:57;;;;;;;4.40;3.17;;;18.90;51.50;;;;;;5065810;28;20040;-56
2020/12/22 00:59:23;;;;;;;5.80;3.65;;;18.90;51.60;;;;;;5065417;28;20036;-53
2020/12/22 01:01:48;;;;;;;4.53;3.22;;;18.90;51.60;;;;;;5065855;28;20036;-57
2020/12/22 01:04:14;;;;;;;5.32;2.90;;;18.90;51.70;;;;;;5066495;28;20445;-58
2020/12/22 01:06:40;;;;;;;4.47;3.45;;;18.90;51.80;;;;;;5048216;28;20044;-56
2020/12/22 01:09:05;;;;;;;6.38;3.03;;;19.00;51.80;;;;;;5048207;28;20060;-53
2020/12/22 01:11:38;;;;;;;4.50;2.75;;;19.00;51.80;;;;;;5065035;28;20045;-56
2020/12/22 01:14:07;;;;;;;4.28;3.10;;;19.00;51.90;;;;;;5066012;28;20029;-56
2020/12/22 01:16:32;;;;;;;4.28;2.95;;;19.00;51.90;;;;;;5065536;28;20043;-54
2020/12/22 01:18:58;;;;;;;4.82;3.25;;;19.00;51.90;;;;;;5065816;28;20052;-55
2020/12/22 01:21:23;;;;;;;5.43;3.22;;;19.10;51.80;;;;;;5065201;28;20119;-54
2020/12/22 01:23:49;;;;;;;4.63;3.08;;;19.10;51.80;;;;;;5065906;28;20032;-54
2020/12/22 01:26:19;;;;;;;4.13;2.58;;;19.10;51.70;;;;;;5065426;28;20039;-55
2020/12/22 01:28:44;;;;;;;3.88;2.90;;;19.10;51.70;;;;;;5064881;28;20693;-55
2020/12/22 01:31:10;;;;;;;4.00;2.78;;;19.10;51.70;;;;;;5065802;28;20048;-53
2020/12/22 01:33:35;;;;;;;5.50;2.80;;;19.10;51.70;;;;;;5065296;28;20426;-56
2020/12/22 01:36:01;;;;;;;4.07;2.60;;;19.10;51.60;;;;;;5065079;28;20060;-55
2020/12/22 01:38:26;;;;;;;4.38;3.10;;;19.10;51.60;;;;;;5065493;28;20112;-53
2020/12/22 01:40:52;;;;;;;4.65;3.00;;;19.10;51.60;;;;;;5064349;28;20029;-55
2020/12/22 01:43:17;;;;;;;4.90;3.00;;;19.10;51.60;;;;;;5065637;28;20043;-55
2020/12/22 01:45:43;;;;;;;4.63;2.97;;;19.10;51.60;;;;;;5065453;28;20542;-55
2020/12/22 01:48:08;;;;;;;4.00;2.80;;;19.10;51.60;;;;;;5065163;28;20094;-56
2020/12/22 01:50:34;;;;;;;3.78;2.70;;;19.10;51.60;;;;;;5047313;28;20103;-57
2020/12/22 01:52:59;;;;;;;4.65;2.67;;;19.10;51.50;;;;;;5065657;28;20407;-52
2020/12/22 01:55:25;;;;;;;5.90;3.42;;;19.10;51.50;;;;;;5064609;28;20044;-56
2020/12/22 01:57:50;;;;;;;4.20;2.60;;;19.00;51.40;;;;;;5065406;28;20033;-54
2020/12/22 02:00:16;;;;;;;5.18;3.15;;;19.10;51.50;;;;;;5046475;28;20121;-54
2020/12/22 02:02:41;;;;;;;3.47;2.70;;;19.10;51.40;;;;;;5063861;28;20025;-55
2020/12/22 02:05:07;;;;;;;5.03;2.70;;;19.00;51.40;;;;;;5046179;28;20281;-52
2020/12/22 02:07:32;;;;;;;3.67;2.58;;;19.00;51.40;;;;;;5063697;28;20050;-54
2020/12/22 02:09:58;;;;;;;3.90;2.80;;;19.00;51.40;;;;;;5064185;28;20054;-54
2020/12/22 02:12:23;;;;;;;3.53;2.45;;;19.00;51.40;;;;;;5064542;28;20033;-58
2020/12/22 02:14:49;;;;;;;3.17;2.30;;;19.00;51.40;;;;;;5047285;28;20143;-58
2020/12/22 02:17:14;;;;;;;3.55;2.50;;;19.00;51.40;;;;;;5064694;28;20040;-53
2020/12/22 02:19:40;;;;;;;3.85;2.42;;;18.90;51.30;;;;;;5046441;28;20036;-55
2020/12/22 02:22:05;;;;;;;3.75;2.83;;;18.90;51.30;;;;;;5064067;28;20102;-54
2020/12/22 02:24:32;;;;;;;3.97;2.60;;;18.90;51.30;;;;;;5064378;28;20110;-51
2020/12/22 02:26:59;;;;;;;4.07;2.58;;;18.90;51.30;;;;;;5064464;28;20044;-55
2020/12/22 02:29:25;;;;;;;3.83;2.35;;;18.90;51.30;;;;;;5064924;28;20040;-53
2020/12/22 02:31:51;;;;;;;3.40;2.28;;;18.90;51.30;;;;;;5062228;28;20469;-54
2020/12/22 02:34:16;;;;;;;4.68;2.55;;;18.90;51.30;;;;;;5064441;28;20033;-55
2020/12/22 02:36:42;;;;;;;5.03;2.35;;;18.80;51.20;;;;;;5064305;28;20028;-56
2020/12/22 02:39:07;;;;;;;3.67;2.33;;;18.80;51.30;;;;;;5064794;28;20506;-56
2020/12/22 02:41:33;;;;;;;3.50;2.15;;;18.90;51.30;;;;;;5064485;28;20043;-54
2020/12/22 02:43:58;;;;;;;2.63;1.88;;;18.80;52.00;;;;;;5065266;28;20037;-55
2020/12/22 02:46:24;;;;;;;3.75;2.85;;;18.80;51.40;;;;;;5062395;28;20040;-58
2020/12/22 02:48:49;;;;;;;4.32;2.30;;;18.80;51.50;;;;;;5069970;28;20409;-53
2020/12/22 02:51:15;;;;;;;2.83;2.30;;;18.90;51.60;;;;;;5066394;28;20009;-56
2020/12/22 02:53:40;;;;;;;2.92;1.95;;;18.90;51.70;;;;;;5065825;28;20582;-54
2020/12/22 02:56:06;;;;;;;5.57;2.30;;;18.90;51.80;;;;;;5065971;28;20100;-54
2020/12/22 02:58:31;;;;;;;4.28;2.22;;;18.90;51.90;;;;;;5065648;28;20032;-53
2020/12/22 03:00:57;;;;;;;2.65;1.88;;;19.00;52.00;;;;;;5065589;28;20111;-53
2020/12/22 03:03:22;;;;;;;3.80;2.40;;;19.00;52.00;;;;;;5065552;28;20054;-56
2020/12/22 03:05:48;;;;;;;2.70;1.98;;;19.10;52.10;;;;;;5066839;28;20017;-53
2020/12/22 03:08:13;;;;;;;2.72;1.80;;;19.10;52.10;;;;;;5065523;28;20024;-54
2020/12/22 03:10:39;;;;;;;3.05;2.10;;;19.10;52.00;;;;;;5065527;28;20402;-56
2020/12/22 03:13:05;;;;;;;2.20;1.77;;;19.20;52.00;;;;;;5048220;28;20021;-59
2020/12/22 03:15:30;;;;;;;2.92;2.13;;;19.20;51.90;;;;;;5068524;28;20134;-57
2020/12/22 03:17:56;;;;;;;2.97;1.90;;;19.20;51.90;;;;;;5051958;28;20025;-55
2020/12/22 03:20:24;;;;;;;2.70;1.70;;;19.20;51.80;;;;;;5069245;28;20261;-55
2020/12/22 03:22:49;;;;;;;3.10;1.83;;;19.20;51.70;;;;;;5069033;28;20023;-54
2020/12/22 03:25:15;;;;;;;2.67;1.80;;;19.20;51.70;;;;;;5051535;28;20434;-55
2020/12/22 03:27:40;;;;;;;3.60;2.03;;;19.20;51.70;;;;;;5069036;28;20121;-56
2020/12/22 03:30:10;;;;;;;2.05;1.52;;;19.20;51.60;;;;;;5062261;28;20459;-56
2020/12/22 03:32:37;;;;;;;3.00;1.65;;;19.20;51.60;;;;;;5068762;28;20564;-53
2020/12/22 03:35:03;;;;;;;1.90;1.52;;;19.20;51.60;;;;;;5069085;28;20074;-54
2020/12/22 03:37:28;;;;;;;2.60;1.60;;;19.20;51.60;;;;;;5069139;28;20112;-52
2020/12/22 03:39:55;;;;;;;2.22;1.55;;;19.20;51.50;;;;;;5069393;28;20588;-51
2020/12/22 03:42:21;;;;;;;3.08;1.95;;;19.20;51.50;;;;;;5051321;28;20048;-55
2020/12/22 03:44:47;;;;;;;1.77;1.38;;;19.20;51.50;;;;;;5068505;28;20126;-53
2020/12/22 03:47:13;;;;;;;3.55;2.08;;;19.20;51.50;;;;;;5068688;28;20056;-55
2020/12/22 03:49:38;;;;;;;2.47;1.70;;;19.20;51.40;;;;;;5069245;28;20097;-58
2020/12/22 03:52:04;;;;;;;2.55;1.85;;;19.20;51.40;;;;;;5068965;28;20052;-57
2020/12/22 03:54:30;;;;;;;1.95;1.30;;;19.10;51.30;;;;;;5069184;28;20024;-51
2020/12/22 03:56:55;;;;;;;3.42;1.55;;;19.20;51.40;;;;;;5069130;28;20502;-52
2020/12/22 03:59:21;;;;;;;2.58;1.50;;;19.10;51.30;;;;;;5068852;28;20035;-53
2020/12/22 04:01:49;;;;;;;2.55;1.60;;;19.10;51.30;;;;;;5060935;28;20052;-54
2020/12/22 04:04:19;;;;;;;3.00;1.70;;;19.10;51.30;;;;;;5068816;28;20028;-56
2020/12/22 04:06:45;;;;;;;2.20;1.38;;;19.10;51.20;;;;;;5069672;28;20730;-53
2020/12/22 04:09:10;;;;;;;4.70;1.90;;;19.10;51.20;;;;;;5051701;28;20095;-56
2020/12/22 04:11:36;;;;;;;2.55;1.38;;;19.00;51.20;;;;;;5060966;28;20028;-57
2020/12/22 04:14:01;;;;;;;2.53;1.52;;;19.10;51.20;;;;;;5069538;28;20082;-53
2020/12/22 04:16:27;;;;;;;1.88;1.52;;;19.10;51.90;;;;;;5070655;28;20036;-57
2020/12/22 04:18:52;;;;;;;1.75;1.27;;;19.00;51.20;;;;;;5068961;28;20024;-54
2020/12/22 04:21:18;;;;;;;3.45;1.75;;;19.00;51.20;;;;;;5050452;28;20032;-52
2020/12/22 04:23:43;;;;;;;1.50;1.38;;;19.00;51.20;;;;;;5068155;28;20017;-54
2020/12/22 04:26:09;;;;;;;2.33;1.08;;;19.00;51.20;;;;;;5067786;28;20040;-58
2020/12/22 04:28:34;;;;;;;1.92;1.42;;;19.00;51.10;;;;;;5069266;28;20012;-56
2020/12/22 04:31:00;;;;;;;2.45;1.63;;;19.00;51.10;;;;;;5049866;28;20120;-54
2020/12/22 04:33:25;;;;;;;2.22;1.23;;;18.90;51.10;;;;;;5068073;28;20028;-55
2020/12/22 04:35:51;;;;;;;2.15;1.35;;;18.90;51.10;;;;;;5068214;28;20017;-53
2020/12/22 04:38:16;;;;;;;1.67;1.20;;;18.90;51.10;;;;;;5067735;28;20086;-52
2020/12/22 04:40:42;;;;;;;1.73;1.38;;;18.90;51.10;;;;;;5067782;28;20119;-54
2020/12/22 04:43:07;;;;;;;2.00;1.40;;;18.90;51.10;;;;;;5049838;28;20016;-56
2020/12/22 04:45:33;;;;;;;1.95;1.58;;;18.90;51.20;;;;;;5064394;28;20434;-51
2020/12/22 04:47:58;;;;;;;1.85;1.40;;;18.80;51.10;;;;;;5033305;28;20565;-54
2020/12/22 04:50:24;;;;;;;1.33;0.93;;;18.80;51.20;;;;;;5067755;28;20150;-55
2020/12/22 04:52:50;;;;;;;1.75;1.65;;;18.90;51.30;;;;;;5067759;28;20020;-54
2020/12/22 04:55:17;;;;;;;2.05;1.30;;;18.90;51.30;;;;;;5067976;28;20036;-56
2020/12/22 04:57:49;;;;;;;3.03;1.42;;;18.90;51.40;;;;;;5033641;28;20032;-55
2020/12/22 05:00:15;;;;;;;2.33;1.35;;;18.90;51.30;;;;;;5049865;28;20502;-55
2020/12/22 05:02:41;;;;;;;1.42;1.20;;;18.90;51.40;;;;;;5067926;28;20032;-54
2020/12/22 05:05:07;;;;;;;2.25;1.48;;;18.90;51.40;;;;;;5067968;28;20029;-56
2020/12/22 05:07:32;;;;;;;1.60;1.00;;;18.90;51.40;;;;;;5049661;28;20039;-57
2020/12/22 05:10:04;;;;;;;1.23;0.90;;;18.90;51.40;;;;;;5067185;28;20093;-54
2020/12/22 05:12:30;;;;;;;1.67;1.10;;;19.00;51.50;;;;;;5067218;28;20021;-56
2020/12/22 05:14:55;;;;;;;1.40;1.10;;;19.00;51.50;;;;;;5067211;28;20033;-55
2020/12/22 05:17:21;;;;;;;1.88;1.30;;;19.00;51.50;;;;;;5067631;28;20020;-53
2020/12/22 05:19:50;;;;;;;1.15;0.80;;;19.00;51.50;;;;;;5067292;28;20020;-55
2020/12/22 05:22:15;;;;;;;1.92;1.25;;;19.00;51.50;;;;;;5049836;28;20017;-54
2020/12/22 05:24:45;;;;;;;1.40;1.08;;;19.00;51.40;;;;;;5051440;28;20472;-56
2020/12/22 05:27:11;;;;;;;1.13;0.82;;;19.00;51.40;;;;;;5017096;28;20048;-57
2020/12/22 05:29:36;;;;;;;1.55;1.00;;;19.10;51.40;;;;;;5067389;28;20031;-54
2020/12/22 05:32:02;;;;;;;1.30;0.90;;;19.00;51.30;;;;;;5066563;28;20527;-52
2020/12/22 05:34:27;;;;;;;1.27;0.82;;;19.00;51.30;;;;;;5032325;28;20054;-54
2020/12/22 05:36:55;;;;;;;1.00;0.77;;;19.00;51.30;;;;;;5033156;28;20387;-52
2020/12/22 05:39:20;;;;;;;1.27;0.85;;;19.10;51.40;;;;;;5031920;28;20028;-54
2020/12/22 05:41:46;;;;;;;1.08;0.80;;;19.10;51.30;;;;;;5031647;28;20030;-52
2020/12/22 05:44:11;;;;;;;1.33;0.70;;;19.00;51.30;;;;;;5066839;28;20039;-54
2020/12/22 05:46:38;;;;;;;1.48;1.00;;;19.10;51.30;;;;;;5066497;28;20068;-54
2020/12/22 05:49:06;;;;;;;2.15;0.95;;;19.00;51.30;;;;;;5066713;28;20107;-55
2020/12/22 05:51:32;;;;;;;2.08;1.10;;;19.00;51.20;;;;;;5048591;28;20187;-55
2020/12/22 05:54:05;;;;;;;1.38;0.70;;;19.00;51.20;;;;;;5066623;28;20119;-55
2020/12/22 05:56:31;;;;;;;1.27;0.90;;;19.00;51.20;;;;;;5066186;28;20078;-56
2020/12/22 05:58:57;;;;;;;1.20;0.77;;;19.00;51.20;;;;;;5066869;28;20036;-55
2020/12/22 06:01:35;;;;;;;2.42;0.95;;;19.00;51.20;;;;;;5048639;28;20020;-56
2020/12/22 06:04:04;;;;;;;1.35;0.65;;;19.00;51.80;;;;;;5066604;28;20032;-52
2020/12/22 06:06:32;;;;;;;1.30;0.85;;;19.00;51.10;;;;;;5066379;28;20047;-52
2020/12/22 06:08:58;;;;;;;0.85;0.80;;;18.90;51.10;;;;;;5066167;28;20041;-57
2020/12/22 06:11:24;;;;;;;1.40;0.98;;;18.90;51.10;;;;;;5065751;28;20104;-54
2020/12/22 06:13:52;;;;;;;1.60;0.73;;;18.90;51.10;;;;;;5066380;28;20016;-53
2020/12/22 06:16:19;;;;;;;1.15;0.63;;;18.90;51.10;;;;;;5066282;28;20434;-54
2020/12/22 06:18:46;;;;;;;1.77;0.73;;;18.90;51.10;;;;;;5066217;28;20078;-55
2020/12/22 06:21:11;;;;;;;0.88;0.80;;;18.90;51.10;;;;;;5048037;28;20025;-55
2020/12/22 06:23:37;;;;;;;0.75;0.60;;;18.80;51.00;;;;;;5066170;28;20383;-58
2020/12/22 06:26:03;;;;;;;1.50;0.80;;;18.90;51.10;;;;;;5066152;28;20032;-57
2020/12/22 06:28:29;;;;;;;1.15;0.77;;;18.90;51.10;;;;;;5066264;28;20447;-56
2020/12/22 06:30:55;;;;;;;1.27;0.80;;;18.90;51.20;;;;;;5065744;28;20017;-55
2020/12/22 06:33:23;;;;;;;0.73;0.60;;;18.80;51.20;;;;;;5066260;28;20024;-53
2020/12/22 06:36:17;;;;;;;1.75;0.80;;;18.90;51.20;;;;;;5066693;28;20025;-56
2020/12/22 06:38:59;;;;;;;1.20;0.70;;;18.90;51.30;;;;;;5055819;28;20035;-54
2020/12/22 06:41:33;;;;;;;1.15;0.70;;;18.90;51.30;;;;;;5067172;28;20111;-57
2020/12/22 06:44:22;;;;;;;0.73;0.50;;;18.90;51.30;;;;;;5067131;28;20052;-53
2020/12/22 06:46:51;;;;;;;1.13;0.73;;;19.00;51.40;;;;;;5060582;28;20107;-55
2020/12/22 06:49:17;;;;;;;0.52;0.45;;;19.00;51.40;;;;;;5066079;28;20108;-54
2020/12/22 06:51:43;;;;;;;0.70;0.50;;;19.00;51.40;;;;;;5048085;28;20707;-58
2020/12/22 06:54:14;;;;;;;0.60;0.47;;;19.00;51.40;;;;;;5065844;28;20021;-52
2020/12/22 06:56:47;;;;;;;1.00;0.68;;;19.00;51.40;;;;;;5058990;28;20036;-56
2020/12/22 06:59:31;;;;;;;0.60;0.50;;;19.10;51.40;;;;;;5065871;28;20036;-56
2020/12/22 07:01:56;;;;;;;0.68;0.60;;;19.00;51.30;;;;;;5065447;28;20195;-56
2020/12/22 07:04:23;;;;;;;0.52;0.52;;;19.00;51.30;;;;;;5065612;28;20628;-52
2020/12/22 07:06:53;;;;;;;0.80;0.52;;;19.10;51.30;;;;;;5065584;28;20054;-52
2020/12/22 07:09:36;;;;;;;0.65;0.40;;;19.10;51.30;;;;;;5046628;28;20033;-54
2020/12/22 07:12:08;;;;;;;0.50;0.50;;;19.00;51.20;;;;;;5030831;28;20032;-54
2020/12/22 07:14:34;;;;;;;0.73;0.60;;;19.00;51.20;;;;;;5065217;28;20032;-52
2020/12/22 07:17:00;;;;;;;0.77;0.57;;;19.00;51.20;;;;;;5065638;28;20029;-53
2020/12/22 07:19:29;;;;;;;0.93;0.50;;;19.10;51.20;;;;;;5065450;28;20033;-57
2020/12/22 07:22:05;;;;;;;0.40;0.35;;;19.10;51.20;;;;;;5065270;28;20029;-54
2020/12/22 07:24:34;;;;;;;0.82;0.60;;;19.10;51.20;;;;;;5047352;28;20406;-51
2020/12/22 07:27:00;;;;;;;0.95;0.70;;;19.00;51.10;;;;;;5065453;28;20028;-56
2020/12/22 07:29:26;;;;;;;0.45;0.35;;;19.00;51.10;;;;;;5065348;28;20570;-55
2020/12/22 07:31:51;;;;;;;0.90;0.50;;;19.00;51.10;;;;;;5065013;28;20170;-55
2020/12/22 07:34:17;;;;;;;0.77;0.68;;;19.00;51.10;;;;;;5065049;28;20028;-54
2020/12/22 07:36:43;;;;;;;0.70;0.50;;;19.00;51.10;;;;;;5065088;28;20501;-53
2020/12/22 07:39:15;;;;;;;0.40;0.30;;;19.00;51.00;;;;;;5065746;28;20028;-54
2020/12/22 07:41:40;;;;;;;0.52;0.40;;;19.00;51.10;;;;;;5065401;28;20392;-52
2020/12/22 07:44:07;;;;;;;1.35;0.65;;;19.00;51.10;;;;;;5065551;28;20040;-53
2020/12/22 07:46:33;;;;;;;0.50;0.40;;;18.90;51.00;;;;;;5064939;28;20021;-57
2020/12/22 07:49:02;;;;;;;0.90;0.50;;;18.90;51.00;;;;;;5065583;28;20017;-55
2020/12/22 07:51:27;;;;;;;0.75;0.50;;;18.90;50.90;;;;;;5047060;28;20418;-58
2020/12/22 07:53:59;;;;;;;0.40;0.40;;;18.90;51.00;;;;;;5066483;28;20044;-58
2020/12/22 07:56:25;;;;;;;0.77;0.40;;;18.90;50.90;;;;;;5065981;28;20030;-57
2020/12/22 07:58:52;;;;;;;0.40;0.40;;;18.90;50.90;;;;;;5065914;28;20116;-56
2020/12/22 08:01:17;;;;;;;0.50;0.50;;;18.90;50.90;;;;;;5066373;28;20025;-55
2020/12/22 08:03:43;;;;;;;1.42;0.40;;;18.90;51.00;;;;;;5034765;28;20031;-54
2020/12/22 08:06:10;;;;;;;2.20;0.63;;;18.90;51.00;;;;;;5068841;28;20482;-55
2020/12/22 08:08:36;;;;;;;1.25;0.50;;;18.90;51.30;;;;;;5060966;28;20070;-50
2020/12/22 08:11:02;;;;;;;4.88;0.75;;;18.90;51.30;;;;;;5068334;28;20012;-52
2020/12/22 08:13:29;;;;;;;3.10;1.15;;;18.90;51.30;;;;;;5068250;28;20031;-50
2020/12/22 08:15:56;;;;;;;1.60;0.52;;;18.90;51.30;;;;;;5050432;28;20585;-55
2020/12/22 08:18:22;;;;;;;4.15;0.65;;;19.00;51.40;;;;;;5034119;28;20032;-49
2020/12/22 08:20:47;;;;;;;1.73;0.60;;;19.00;51.50;;;;;;5050412;28;20035;-49
2020/12/22 08:23:13;;;;;;;2.70;0.68;;;19.00;51.50;;;;;;5050077;28;20061;-49
2020/12/22 08:25:38;;;;;;;2.30;0.73;;;19.00;51.60;;;;;;5034269;28;20036;-50
2020/12/22 08:28:04;;;;;;;1.30;0.80;;;19.10;51.60;;;;;;5068411;28;20388;-49
2020/12/22 08:30:32;;;;;;;1.52;0.73;;;19.10;51.60;;;;;;5067721;28;20115;-53
2020/12/22 08:32:58;;;;;;;2.28;0.80;;;19.20;51.60;;;;;;5062815;28;20555;-50
2020/12/22 08:35:26;;;;;;;1.85;0.70;;;19.20;51.50;;;;;;5047775;28;20029;-51
2020/12/22 08:37:52;;;;;;;1.40;0.65;;;19.20;51.40;;;;;;5065167;28;20090;-50
2020/12/22 08:40:27;;;;;;;2.30;0.82;;;19.20;51.40;;;;;;5064364;28;20024;-52
2020/12/22 08:42:52;;;;;;;1.33;0.55;;;19.20;51.40;;;;;;5065242;28;20036;-49
2020/12/22 08:45:18;;;;;;;2.45;1.00;;;19.20;51.30;;;;;;5065204;28;20033;-49
2020/12/22 08:47:52;;;;;;;1.00;0.75;;;19.20;51.20;;;;;;5065900;28;20564;-51
2020/12/22 08:50:18;;;;;;;3.58;0.85;;;19.20;51.20;;;;;;5065643;28;20079;-51
2020/12/22 08:52:44;;;;;;;2.10;1.13;;;19.20;51.20;;;;;;5066119;28;20029;-52
2020/12/22 08:55:10;;;;;;;1.67;0.80;;;19.20;51.20;;;;;;5065722;28;20039;-49
2020/12/22 08:57:36;;;;;;;2.42;0.90;;;19.20;51.20;;;;;;5065904;28;20033;-54
2020/12/22 09:00:14;;;;;;;2.45;1.13;;;19.20;51.20;;;;;;5048512;28;20036;-49
2020/12/22 09:02:41;;;;;;;0.90;0.60;;;19.20;51.20;;;;;;5047600;28;20037;-48
2020/12/22 09:05:10;;;;;;;1.00;0.88;;;19.20;51.10;;;;;;5066855;28;20407;-56
2020/12/22 09:07:36;;;;;;;4.93;2.42;;;19.10;51.00;;;;;;5068340;28;20024;-59
2020/12/22 09:10:08;;;;;;;4.72;2.00;;;19.10;51.00;;;;;;5050814;28;20502;-60
2020/12/22 09:12:34;;;;;;;26.42;12.48;;;19.10;51.00;;;;;;5037716;28;20025;-56
2020/12/22 09:15:00;;;;;;;30.48;12.95;;;19.10;51.00;;;;;;5041814;28;20033;-56
2020/12/22 09:17:26;;;;;;;37.72;17.50;;;19.10;51.00;;;;;;5067521;28;20021;-56
2020/12/22 09:19:52;;;;;;;25.35;11.43;;;19.10;51.10;;;;;;5035128;28;20730;-58
2020/12/22 09:22:21;;;;;;;48.75;20.83;;;19.10;51.00;;;;;;5061392;28;20032;-57
2020/12/22 09:24:54;;;;;;;47.40;21.58;;;19.10;51.10;;;;;;5065035;28;20043;-59
2020/12/22 09:27:33;;;;;;;42.97;20.23;;;19.00;51.00;;;;;;5065366;28;20132;-55
2020/12/22 09:29:59;;;;;;;48.85;21.58;;;19.10;51.10;;;;;;5059449;28;20067;-56
2020/12/22 09:32:25;;;;;;;46.47;20.20;;;19.10;51.10;;;;;;5066596;28;20056;-57
2020/12/22 09:34:50;;;;;;;42.28;18.58;;;19.10;51.10;;;;;;5026116;28;20723;-58
2020/12/22 09:37:16;;;;;;;46.42;21.08;;;19.00;51.00;;;;;;5063724;28;20032;-60
2020/12/22 09:39:42;;;;;;;43.25;19.27;;;19.00;51.00;;;;;;5064369;28;20037;-61
2020/12/22 09:42:07;;;;;;;40.25;19.70;;;19.10;51.50;;;;;;5064921;28;20033;-59
2020/12/22 09:44:34;;;;;;;37.70;19.67;;;19.10;51.70;;;;;;5065381;28;20677;-61
2020/12/22 09:47:00;;;;;;;40.13;20.95;;;19.10;51.60;;;;;;5065644;28;20055;-61
2020/12/22 09:49:26;;;;;;;38.00;20.13;;;19.10;51.60;;;;;;5064440;28;20466;-62
2020/12/22 09:51:52;;;;;;;39.72;20.15;;;19.00;51.50;;;;;;5063994;28;20542;-54
2020/12/22 09:54:17;;;;;;;46.80;21.33;;;19.10;51.60;;;;;;5064859;28;20056;-58
2020/12/22 09:56:43;;;;;;;41.03;20.50;;;19.00;52.10;;;;;;5064578;28;20028;-62
2020/12/22 09:59:08;;;;;;;44.75;21.55;;;19.10;52.30;;;;;;5065239;28;20025;-61
2020/12/22 10:01:34;;;;;;;36.75;20.58;;;19.20;52.60;;;;;;5065219;28;20021;-63
2020/12/22 10:08:05;;;;;;;41.17;21.50;;;19.50;52.00;;;;;;5090372;28;20619;-61
2020/12/22 10:10:30;;;;;;;40.15;21.70;;;19.40;52.50;;;;;;5082233;28;20085;-61
2020/12/22 10:12:55;;;;;;;42.50;20.30;;;19.20;52.80;;;;;;5063329;28;20047;-61
2020/12/22 10:15:21;;;;;;;42.53;19.85;;;19.10;53.00;;;;;;5053314;28;20033;-61
2020/12/22 10:17:46;;;;;;;45.35;20.80;;;19.00;53.00;;;;;;5057666;28;20041;-64
2020/12/22 10:20:12;;;;;;;39.42;19.00;;;19.00;53.10;;;;;;5057493;28;20518;-61
2020/12/22 10:22:37;;;;;;;40.38;19.23;;;19.00;53.10;;;;;;5064888;28;20029;-60
2020/12/22 10:25:03;;;;;;;43.80;19.00;;;19.00;53.30;;;;;;5045212;28;20172;-60
2020/12/22 10:27:28;;;;;;;37.40;17.30;;;19.00;53.30;;;;;;5062811;28;20037;-62
2020/12/22 10:29:54;;;;;;;38.45;18.73;;;19.00;53.30;;;;;;5050592;28;20632;-62
2020/12/22 10:32:19;;;;;;;35.13;16.52;;;19.10;53.40;;;;;;5051631;28;20021;-62
2020/12/22 10:34:45;;;;;;;30.95;15.77;;;19.10;53.50;;;;;;5059361;28;20013;-61
2020/12/22 10:37:10;;;;;;;30.27;14.75;;;19.00;53.60;;;;;;5059413;28;20555;-61
2020/12/22 10:39:36;;;;;;;33.63;14.88;;;19.00;53.70;;;;;;5044555;28;20458;-61
2020/12/22 10:42:01;;;;;;;29.30;15.35;;;19.00;54.00;;;;;;5055919;28;20120;-62
2020/12/22 10:44:27;;;;;;;35.70;14.73;;;19.00;54.30;;;;;;5053885;28;20660;-61
2020/12/22 10:46:52;;;;;;;27.33;13.65;;;19.00;54.60;;;;;;5050683;28;20033;-61
2020/12/22 10:49:18;;;;;;;24.52;13.50;;;19.00;54.60;;;;;;5044276;28;20112;-61
2020/12/22 10:51:43;;;;;;;27.60;13.20;;;19.00;54.60;;;;;;5044800;28;20056;-61
2020/12/22 10:54:09;;;;;;;28.05;13.05;;;19.00;54.50;;;;;;5059624;28;20651;-61
2020/12/22 10:56:34;;;;;;;31.88;12.60;;;19.00;54.40;;;;;;5052555;28;20586;-61
2020/12/22 10:59:00;;;;;;;25.88;12.43;;;19.00;54.30;;;;;;5048343;28;20082;-62
2020/12/22 11:01:26;;;;;;;27.83;12.05;;;19.10;54.30;;;;;;5046194;28;20060;-61
2020/12/22 11:03:51;;;;;;;22.27;12.93;;;19.00;54.20;;;;;;5063155;28;20052;-60
2020/12/22 11:06:35;;;;;;;25.17;11.93;;;19.10;54.20;;;;;;5055430;28;20044;-61
2020/12/22 11:09:01;;;;;;;22.05;12.02;;;19.10;54.10;;;;;;5052746;28;20029;-62
2020/12/22 11:11:26;;;;;;;22.17;11.77;;;19.00;54.00;;;;;;5044504;28;20036;-61
2020/12/22 11:13:52;;;;;;;24.00;11.82;;;19.10;54.00;;;;;;5059257;28;20498;-61
2020/12/22 11:16:24;;;;;;;22.17;10.82;;;19.10;54.00;;;;;;5054643;28;20047;-62
2020/12/22 11:18:49;;;;;;;19.63;11.07;;;19.10;53.90;;;;;;5036871;28;20021;-62
2020/12/22 11:21:15;;;;;;;20.55;10.43;;;19.10;53.90;;;;;;5038960;28;20025;-61
2020/12/22 11:23:40;;;;;;;20.92;10.68;;;19.10;53.90;;;;;;5034454;28;20395;-62
2020/12/22 11:26:10;;;;;;;19.55;9.80;;;19.10;53.90;;;;;;5048942;28;20073;-61
2020/12/22 11:28:35;;;;;;;24.38;10.88;;;19.10;54.50;;;;;;5048447;28;20031;-61
2020/12/22 11:31:01;;;;;;;15.32;9.15;;;19.10;53.80;;;;;;5036959;28;20022;-61
2020/12/22 11:33:26;;;;;;;18.27;9.90;;;19.10;53.80;;;;;;5035187;28;20427;-61
2020/12/22 11:35:52;;;;;;;18.55;8.82;;;19.10;53.80;;;;;;5040358;28;20026;-61
2020/12/22 11:38:17;;;;;;;20.05;9.75;;;19.10;53.70;;;;;;5049570;28;20023;-61
2020/12/22 11:40:43;;;;;;;20.00;9.45;;;19.10;53.70;;;;;;5034352;28;20043;-60
2020/12/22 11:43:09;;;;;;;18.75;9.48;;;19.10;53.70;;;;;;5031593;28;20034;-61
2020/12/22 11:45:34;;;;;;;17.15;8.20;;;19.10;53.80;;;;;;5036262;28;20133;-61
2020/12/22 11:48:00;;;;;;;18.00;8.95;;;19.10;53.70;;;;;;5040865;28;20025;-61
2020/12/22 11:50:25;;;;;;;14.07;9.13;;;19.10;53.70;;;;;;5029825;28;20682;-60
2020/12/22 11:52:51;;;;;;;14.00;8.35;;;19.20;53.80;;;;;;5037726;28;20021;-61
2020/12/22 11:55:17;;;;;;;13.73;7.55;;;19.20;53.70;;;;;;5043277;28;20039;-60
2020/12/22 11:57:42;;;;;;;15.32;7.38;;;19.20;53.70;;;;;;5042389;28;20155;-63
2020/12/22 12:00:08;;;;;;;15.13;7.85;;;19.20;53.60;;;;;;5033770;28;20037;-62
2020/12/22 12:02:34;;;;;;;16.48;7.60;;;19.20;53.60;;;;;;5032025;28;20539;-61
2020/12/22 12:05:00;;;;;;;15.73;7.57;;;19.20;53.60;;;;;;5035777;28;20029;-61
2020/12/22 12:07:25;;;;;;;13.85;7.07;;;19.20;53.60;;;;;;5037517;28;20028;-60
2020/12/22 12:09:51;;;;;;;15.85;7.32;;;19.20;53.50;;;;;;5033223;28;20029;-60
2020/12/22 12:12:16;;;;;;;17.83;7.63;;;19.30;53.40;;;;;;5039620;28;20036;-62
2020/12/22 12:14:42;;;;;;;18.02;7.25;;;19.30;53.30;;;;;;5039491;28;20037;-58
2020/12/22 12:17:08;;;;;;;15.18;7.47;;;19.30;53.40;;;;;;5034481;28;20511;-61
2020/12/22 12:19:33;;;;;;;18.75;6.53;;;19.20;53.40;;;;;;5038596;28;20152;-61
2020/12/22 12:21:59;;;;;;;14.70;6.05;;;19.30;53.40;;;;;;5041238;28;20068;-63
2020/12/22 12:24:25;;;;;;;12.82;6.88;;;19.30;53.20;;;;;;5035224;28;20031;-63
2020/12/22 12:26:51;;;;;;;12.32;5.85;;;19.30;53.30;;;;;;5040042;28;20033;-60
2020/12/22 12:29:17;;;;;;;14.82;5.88;;;19.30;53.30;;;;;;5030587;28;20025;-61
2020/12/22 12:31:44;;;;;;;14.13;5.88;;;19.30;53.50;;;;;;5035462;28;20033;-62
2020/12/22 12:34:10;;;;;;;13.57;5.45;;;19.20;53.50;;;;;;5042752;28;20484;-61
2020/12/22 12:36:35;;;;;;;9.30;5.05;;;19.20;53.50;;;;;;5029571;28;20032;-62
2020/12/22 12:39:02;;;;;;;10.13;5.45;;;19.20;53.40;;;;;;5047609;28;20032;-63
2020/12/22 12:41:28;;;;;;;14.68;6.45;;;19.20;53.40;;;;;;5030115;28;20121;-61
2020/12/22 12:43:54;;;;;;;12.15;7.20;;;19.20;53.40;;;;;;5036166;28;20083;-63